Time;durP1;ratioP1;P1;durP2;ratioP2;P2;SDS_P1;SDS_P2;PMS_P1;PMS_P2;Temp;Humidity;BMP_temperature;BMP_pressure;BME280_temperature;BME280_humidity;BME280_pressure;Samples;Min_cycle;Max_cycle;Signal;HPM_P1;HPM_P2
2022/06/02 00:01:16;;;;;;;7.40;3.70;;;;;;;24.18;51.64;100660.72;2084395;28;20049;-72
2022/06/02 00:03:01;;;;;;;8.85;4.40;;;;;;;24.16;51.56;100645.53;2079484;28;20053;-72
2022/06/02 00:04:31;;;;;;;8.73;4.05;;;;;;;24.15;51.44;100652.78;2089729;28;20044;-71
2022/06/02 00:06:07;;;;;;;5.50;3.42;;;;;;;24.17;51.38;100655.41;2089560;28;20052;-72
2022/06/02 00:07:38;;;;;;;7.68;3.75;;;;;;;24.17;51.50;100663.47;2081580;28;20091;-71
2022/06/02 00:09:08;;;;;;;9.60;4.07;;;;;;;24.16;51.45;100664.41;2081695;28;20504;-72
2022/06/02 00:10:42;;;;;;;5.55;3.75;;;;;;;24.14;51.58;100663.63;2074953;28;20045;-72
2022/06/02 00:12:12;;;;;;;8.40;4.50;;;;;;;24.14;51.61;100663.63;2087976;28;20194;-71
2022/06/02 00:13:43;;;;;;;7.07;4.63;;;;;;;24.15;51.69;100662.69;2079781;28;20088;-72
2022/06/02 00:15:23;;;;;;;8.15;4.25;;;;;;;24.15;51.57;100666.28;2079608;28;20145;-72
2022/06/02 00:16:53;;;;;;;8.20;4.22;;;;;;;24.11;51.61;100671.84;2086612;28;20083;-72
2022/06/02 00:18:21;;;;;;;8.05;4.22;;;;;;;24.08;51.79;100661.19;2078635;28;20472;-71
2022/06/02 00:19:50;;;;;;;9.05;4.63;;;;;;;24.09;51.88;100660.25;2086051;28;20547;-71
2022/06/02 00:21:26;;;;;;;11.00;4.05;;;;;;;24.09;51.90;100661.09;2086311;28;20424;-71
2022/06/02 00:23:01;;;;;;;9.05;4.13;;;;;;;24.07;51.92;100657.63;2080755;28;20045;-72
2022/06/02 00:24:37;;;;;;;6.50;4.53;;;;;;;24.07;51.77;100659.44;2086133;28;20056;-72
2022/06/02 00:26:07;;;;;;;6.80;4.20;;;;;;;24.07;51.95;100662.13;2080323;28;20045;-72
2022/06/02 00:27:38;;;;;;;10.18;5.00;;;;;;;24.07;51.73;100664.81;2085737;28;20057;-71
2022/06/02 00:29:11;;;;;;;8.27;4.38;;;;;;;24.09;51.69;100661.09;2089530;28;20037;-72
2022/06/02 00:30:40;;;;;;;9.77;4.93;;;;;;;24.11;51.71;100666.44;2081305;28;20091;-72
2022/06/02 00:32:07;;;;;;;10.60;4.57;;;;;;;24.11;51.65;100656.53;2069326;28;20520;-71
2022/06/02 00:33:39;;;;;;;6.18;4.38;;;;;;;24.16;51.66;100654.50;2086054;28;20041;-72
2022/06/02 00:35:15;;;;;;;9.68;4.65;;;;;;;24.18;51.42;100657.16;2079323;28;20052;-71
2022/06/02 00:36:43;;;;;;;11.98;4.72;;;;;;;24.16;51.34;100656.31;2081055;28;20508;-71
2022/06/02 00:38:13;;;;;;;7.60;4.05;;;;;;;24.15;51.40;100665.38;2079093;28;20041;-71
2022/06/02 00:39:35;;;;;;;10.63;4.50;;;;;;;24.10;51.64;100661.97;2079868;28;20041;-72
2022/06/02 00:41:06;;;;;;;9.48;4.43;;;;;;;24.08;51.82;100655.78;2078410;28;20092;-72
2022/06/02 00:42:56;;;;;;;10.38;4.85;;;;;;;24.07;51.67;100656.72;2085158;28;20102;-72
2022/06/02 00:44:31;;;;;;;8.57;3.88;;;;;;;24.05;51.55;100653.22;2089227;28;20472;-72
2022/06/02 00:46:04;;;;;;;8.38;4.88;;;;;;;24.04;51.69;100649.63;2088233;28;20063;-72
2022/06/02 00:47:40;;;;;;;9.45;4.95;;;;;;;24.06;51.73;100654.97;2088453;28;20442;-71
2022/06/02 00:49:15;;;;;;;12.65;4.13;;;;;;;24.06;51.58;100652.28;2078456;28;20091;-72
2022/06/02 00:50:54;;;;;;;10.00;4.57;;;;;;;24.05;51.74;100648.69;2079215;28;20048;-72
2022/06/02 00:52:28;;;;;;;10.00;4.43;;;;;;;24.03;51.65;100649.69;2072827;28;20070;-71
2022/06/02 00:57:52;;;;;;;8.38;4.57;;;;;;;23.95;51.73;100644.63;2089394;28;20048;-72
2022/06/02 00:59:32;;;;;;;9.25;4.20;;;;;;;23.96;51.91;100638.28;2076963;28;20064;-72
2022/06/02 01:01:01;;;;;;;7.38;4.43;;;;;;;23.96;51.74;100640.97;2072725;28;20099;-71
2022/06/02 01:02:24;;;;;;;9.68;4.45;;;;;;;23.96;51.73;100645.53;2085645;28;20060;-72
2022/06/02 01:03:49;;;;;;;9.45;4.72;;;;;;;23.96;51.91;100640.97;2080489;28;20049;-72
2022/06/02 01:05:10;;;;;;;9.02;4.35;;;;;;;23.95;51.92;100647.34;2072703;28;20525;-72
2022/06/02 01:07:03;;;;;;;7.65;4.40;;;;;;;23.95;51.91;100641.94;2078822;28;20037;-71
2022/06/02 01:08:27;;;;;;;;;;;;;;;23.91;51.92;100637.59;2072919;28;20053;-71
2022/06/02 01:10:20;;;;;;;10.00;5.28;;;;;;;23.90;52.08;100634.97;2083725;28;19940;-72
2022/06/02 01:11:55;;;;;;;7.60;4.47;;;;;;;23.89;51.97;100638.63;2080784;28;20414;-71
2022/06/02 01:13:31;;;;;;;6.45;4.45;;;;;;;23.89;51.95;100625.13;2071762;28;20537;-71
2022/06/02 01:15:07;;;;;;;7.18;4.40;;;;;;;23.92;51.93;100630.38;2085584;28;20049;-72
2022/06/02 01:16:44;;;;;;;8.45;4.03;;;;;;;23.92;51.91;100636.66;2088210;28;20086;-71
2022/06/02 01:18:18;;;;;;;9.18;4.97;;;;;;;23.93;52.03;100622.25;2080308;28;20049;-71
2022/06/02 01:19:58;;;;;;;9.75;4.32;;;;;;;23.91;52.08;100624.13;2083327;28;20536;-72
2022/06/02 01:21:38;;;;;;;13.30;6.03;;;;;;;23.90;52.19;100627.75;2072389;28;20132;-72
2022/06/02 01:23:58;;;;;;;8.65;4.30;;;;;;;23.90;52.11;100625.06;2080673;28;20049;-71
2022/06/02 01:25:52;;;;;;;9.02;4.72;;;;;;;23.86;52.41;100622.56;2086715;28;20060;-71
2022/06/02 01:27:39;;;;;;;11.55;4.78;;;;;;;23.84;52.40;100626.19;2084917;28;20064;-72
2022/06/02 01:29:17;;;;;;;7.95;4.65;;;;;;;23.81;52.38;100620.06;2079600;28;20583;-72
2022/06/02 01:31:01;;;;;;;12.77;5.47;;;;;;;23.80;52.79;100621.88;2072007;28;20038;-72
2022/06/02 01:32:30;;;;;;;8.13;4.28;;;;;;;23.83;52.73;100623.53;2080767;28;20053;-72
2022/06/02 01:34:01;;;;;;;10.90;4.68;;;;;;;23.84;52.70;100615.41;2071100;28;20107;-72
2022/06/02 01:35:28;;;;;;;7.95;4.85;;;;;;;23.87;52.78;100624.31;2076062;28;20037;-72
2022/06/02 01:37:00;;;;;;;10.27;4.80;;;;;;;23.89;52.72;100628.72;2070234;28;20058;-71
2022/06/02 01:38:28;;;;;;;9.52;4.63;;;;;;;23.89;52.67;100608.97;2078201;28;20057;-72
2022/06/02 01:40:20;;;;;;;11.50;4.18;;;;;;;23.90;52.77;100627.75;2086726;28;20517;-71
2022/06/02 01:41:50;;;;;;;7.53;4.38;;;;;;;23.90;52.91;100616.09;2080648;28;20152;-71
2022/06/02 01:43:17;;;;;;;10.50;4.30;;;;;;;23.88;52.91;100613.47;2082146;28;20677;-71
2022/06/02 01:44:44;;;;;;;8.27;5.15;;;;;;;23.88;52.88;100626.06;2078993;28;20049;-71
2022/06/02 01:46:39;;;;;;;8.93;5.13;;;;;;;23.84;53.05;100620.78;2077215;28;20152;-71
2022/06/02 01:48:11;;;;;;;8.60;3.88;;;;;;;23.80;53.21;100608.41;2080932;28;20556;-72
2022/06/02 01:49:47;;;;;;;8.27;4.47;;;;;;;23.79;53.38;100609.31;2086210;28;20074;-73
2022/06/02 01:51:17;;;;;;;6.65;4.38;;;;;;;23.79;53.35;100611.16;2087924;28;20391;-72
2022/06/02 01:52:51;;;;;;;8.57;5.07;;;;;;;23.76;53.37;100606.75;2086004;28;20373;-71
2022/06/02 01:54:26;;;;;;;9.27;4.90;;;;;;;23.74;53.65;100602.38;2073900;28;20069;-71
2022/06/02 01:56:04;;;;;;;10.23;4.90;;;;;;;23.71;53.77;100606.06;2086837;28;20045;-72
2022/06/02 01:57:44;;;;;;;8.07;4.90;;;;;;;23.70;53.82;100604.31;2080322;28;20096;-72
2022/06/02 01:59:23;;;;;;;11.40;5.15;;;;;;;23.70;53.89;100601.59;2079917;28;20087;-71
2022/06/02 02:00:54;;;;;;;9.18;5.10;;;;;;;23.70;53.87;100604.31;2080365;28;20052;-72
2022/06/02 02:02:26;;;;;;;11.68;4.55;;;;;;;23.70;54.03;100609.69;2084525;28;20512;-72
2022/06/02 02:03:57;;;;;;;;;;;;;;;23.67;54.15;100617.03;2080881;28;20457;-72
2022/06/02 02:05:31;;;;;;;10.30;5.57;;;;;;;23.65;54.18;100614.41;2089503;28;19999;-72
2022/06/02 02:07:01;;;;;;;9.45;4.80;;;;;;;23.65;54.12;100613.53;2088056;28;20053;-72
2022/06/02 02:08:35;;;;;;;9.68;5.30;;;;;;;23.65;54.30;100619.78;2079147;28;20038;-72
2022/06/02 02:10:03;;;;;;;9.40;4.25;;;;;;;23.64;54.34;100623.41;2086252;28;20045;-72
2022/06/02 02:11:49;;;;;;;10.02;5.00;;;;;;;23.66;54.34;100623.38;2078605;28;20099;-72
2022/06/02 02:13:21;;;;;;;8.25;4.38;;;;;;;23.64;54.33;100617.16;2078394;28;20044;-72
2022/06/02 02:15:03;;;;;;;9.60;4.75;;;;;;;23.64;54.52;100618.03;2086231;28;20521;-72
2022/06/02 02:16:36;;;;;;;10.05;4.82;;;;;;;23.65;54.38;100621.59;2079438;28;20485;-71
2022/06/02 02:18:21;;;;;;;8.98;4.90;;;;;;;23.65;54.30;100625.19;2071263;28;20053;-72
2022/06/02 02:19:53;;;;;;;16.95;5.85;;;;;;;23.62;54.59;100622.63;2084871;28;20049;-71
2022/06/02 02:21:23;;;;;;;9.85;5.15;;;;;;;23.62;54.75;100619.94;2085740;28;20049;-71
2022/06/02 02:22:54;;;;;;;9.18;4.63;;;;;;;23.62;54.69;100624.44;2079148;28;20140;-70
2022/06/02 02:24:41;;;;;;;12.15;5.18;;;;;;;23.61;54.57;100626.25;2072074;28;20045;-71
2022/06/02 02:26:12;;;;;;;10.50;5.00;;;;;;;23.61;54.76;100626.25;2072283;28;20496;-73
2022/06/02 02:28:03;;;;;;;8.65;4.60;;;;;;;23.59;54.95;100629.94;2084691;28;20514;-72
2022/06/02 02:29:32;;;;;;;10.82;4.53;;;;;;;23.57;54.89;100627.31;2087315;28;20090;-72
2022/06/02 02:31:08;;;;;;;9.68;4.75;;;;;;;23.58;55.01;100633.56;2078434;28;20114;-73
2022/06/02 02:32:42;;;;;;;10.18;4.65;;;;;;;23.56;55.01;100633.66;2084695;28;20073;-72
2022/06/02 02:34:16;;;;;;;8.13;4.68;;;;;;;23.56;55.09;100635.47;2079204;28;20441;-72
2022/06/02 02:35:52;;;;;;;8.98;4.90;;;;;;;23.52;55.33;100634.69;2087158;28;20104;-72
2022/06/02 02:37:23;;;;;;;10.88;5.57;;;;;;;23.51;55.24;100624.84;2087470;28;20677;-72
2022/06/02 02:38:54;;;;;;;9.35;4.53;;;;;;;23.51;55.42;100632.94;2078123;28;20080;-72
2022/06/02 02:40:26;;;;;;;8.43;5.28;;;;;;;23.51;55.35;100619.47;2085857;28;20117;-72
2022/06/02 02:41:57;;;;;;;10.13;4.65;;;;;;;23.52;55.24;100628.44;2073296;28;20057;-71
2022/06/02 02:43:25;;;;;;;6.85;4.38;;;;;;;23.52;55.54;100623.91;2069407;28;20060;-72
2022/06/02 02:44:59;;;;;;;10.02;4.60;;;;;;;23.52;55.50;100629.31;2076639;28;20494;-72
2022/06/02 02:46:31;;;;;;;9.88;5.20;;;;;;;23.51;55.58;100616.78;2079039;28;20114;-71
2022/06/02 02:47:58;;;;;;;6.40;3.65;;;;;;;23.51;55.63;100622.16;2079453;28;20057;-72
2022/06/02 02:49:27;;;;;;;8.90;4.93;;;;;;;23.51;55.56;100615.88;2085506;28;20084;-72
2022/06/02 02:50:58;;;;;;;13.52;5.35;;;;;;;23.52;55.66;100615.84;2072281;28;20104;-72
2022/06/02 02:52:27;;;;;;;11.35;4.82;;;;;;;23.51;55.75;100618.59;2068427;28;20084;-72
2022/06/02 02:53:58;;;;;;;10.20;5.28;;;;;;;23.51;55.77;100619.47;2068470;28;20530;-71
2022/06/02 02:55:24;;;;;;;9.95;5.15;;;;;;;23.48;55.92;100608.81;2075955;28;20040;-71
2022/06/02 02:56:53;;;;;;;8.20;4.88;;;;;;;23.50;55.96;100614.16;2078198;28;20076;-72
2022/06/02 02:58:22;;;;;;;8.15;5.50;;;;;;;23.48;56.16;100618.72;2078504;28;20501;-71
2022/06/02 02:59:53;;;;;;;12.52;4.75;;;;;;;23.48;56.10;100613.34;2078177;28;20132;-72
2022/06/02 03:01:24;;;;;;;9.68;4.90;;;;;;;23.49;56.03;100618.66;2073320;28;20046;-72
2022/06/02 03:02:57;;;;;;;10.48;4.93;;;;;;;23.51;56.10;100618.59;2076973;28;20126;-72
2022/06/02 03:04:48;;;;;;;11.45;6.03;;;;;;;23.51;56.15;100619.47;2076849;28;20041;-72
2022/06/02 03:06:28;;;;;;;7.30;4.80;;;;;;;23.51;56.13;100615.88;2071631;28;20393;-71
2022/06/02 03:07:51;;;;;;;8.15;4.50;;;;;;;23.52;55.91;100615.84;2079465;28;20091;-72
2022/06/02 03:09:15;;;;;;;8.75;5.22;;;;;;;23.54;55.84;100621.19;2082157;28;20055;-72
2022/06/02 03:10:40;;;;;;;13.80;4.85;;;;;;;23.54;56.08;100616.66;2077743;28;20108;-71
2022/06/02 03:12:13;;;;;;;8.85;5.00;;;;;;;23.56;55.89;100625.56;2083981;28;20107;-72
2022/06/02 03:13:39;;;;;;;;;;;;;;;23.55;55.94;100618.44;2079170;28;20075;-71
2022/06/02 03:15:18;;;;;;;7.78;4.78;;;;;;;23.57;55.88;100612.94;2084498;28;20582;-72
2022/06/02 03:16:42;;;;;;;9.88;4.93;;;;;;;23.59;55.75;100622.75;2079706;28;20055;-72
2022/06/02 03:18:28;;;;;;;10.57;5.50;;;;;;;23.62;55.77;100622.63;2080460;28;20594;-73
2022/06/02 03:19:59;;;;;;;11.55;5.10;;;;;;;23.64;55.73;100622.53;2079637;28;20041;-72
2022/06/02 03:21:33;;;;;;;8.07;5.32;;;;;;;23.65;55.78;100625.19;2079738;28;20596;-72
2022/06/02 03:23:11;;;;;;;10.15;4.97;;;;;;;23.68;55.67;100621.50;2080119;28;20136;-71
2022/06/02 03:24:52;;;;;;;8.07;4.70;;;;;;;23.73;55.48;100625.75;2085214;28;20640;-71
2022/06/02 03:26:22;;;;;;;11.98;5.78;;;;;;;23.77;55.43;100623.81;2085656;28;20394;-71
2022/06/02 03:27:51;;;;;;;12.18;5.18;;;;;;;23.78;55.45;100621.06;2061910;28;20038;-72
2022/06/02 03:29:24;;;;;;;13.80;5.35;;;;;;;23.81;55.52;100623.63;2077895;28;20049;-72
2022/06/02 03:30:58;;;;;;;12.45;4.88;;;;;;;23.84;55.51;100619.91;2079031;28;20527;-72
2022/06/02 03:32:33;;;;;;;13.25;4.82;;;;;;;23.91;55.27;100617.84;2085632;28;20053;-72
2022/06/02 03:34:08;;;;;;;9.13;4.85;;;;;;;24.00;55.24;100623.75;2071029;28;20120;-71
2022/06/02 03:35:36;;;;;;;10.70;4.47;;;;;;;24.08;55.20;100623.44;2070104;28;20056;-72
2022/06/02 03:37:23;;;;;;;11.57;4.35;;;;;;;24.17;54.82;100625.72;2084857;28;20599;-72
2022/06/02 03:39:04;;;;;;;9.20;4.63;;;;;;;24.27;54.56;100629.81;2079892;28;20451;-72
2022/06/02 03:40:34;;;;;;;12.02;4.93;;;;;;;24.36;54.49;100631.22;2082554;28;20167;-70
2022/06/02 03:42:15;;;;;;;11.82;4.40;;;;;;;24.44;54.41;100631.78;2085597;28;20040;-72
2022/06/02 03:43:46;;;;;;;17.10;4.10;;;;;;;24.50;54.15;100627.00;2085255;28;20553;-71
2022/06/02 03:45:18;;;;;;;11.15;4.70;;;;;;;24.57;54.08;100639.28;2078525;28;20052;-71
2022/06/02 03:46:54;;;;;;;10.00;4.82;;;;;;;24.68;53.92;100643.34;2079770;28;20094;-71
2022/06/02 03:48:42;;;;;;;9.20;4.20;;;;;;;24.78;53.36;100640.16;2082735;28;20041;-72
2022/06/02 03:50:30;;;;;;;10.27;4.30;;;;;;;24.91;53.26;100637.81;2079933;28;20044;-71
2022/06/02 03:52:10;;;;;;;11.57;4.75;;;;;;;25.02;53.08;100640.88;2071970;28;20053;-71
2022/06/02 03:53:48;;;;;;;9.88;4.07;;;;;;;25.13;52.95;100644.00;2079775;28;20041;-72
2022/06/02 03:55:28;;;;;;;8.77;3.72;;;;;;;25.23;52.30;100645.28;2084262;28;20041;-72
2022/06/02 03:57:06;;;;;;;8.43;3.63;;;;;;;25.35;52.06;100643.84;2079372;28;20054;-72
2022/06/02 03:58:51;;;;;;;7.80;3.95;;;;;;;25.46;51.98;100643.34;2087385;28;20571;-72
2022/06/02 04:00:22;;;;;;;9.45;4.60;;;;;;;25.57;51.68;100647.31;2077171;28;20515;-71
2022/06/02 04:01:53;;;;;;;9.50;3.85;;;;;;;25.71;51.59;100646.66;2079633;28;20045;-72
2022/06/02 04:03:32;;;;;;;9.50;3.60;;;;;;;25.86;51.45;100637.78;2086608;28;20057;-71
2022/06/02 04:05:06;;;;;;;8.23;3.72;;;;;;;26.03;50.80;100648.63;2078283;28;20433;-72
2022/06/02 04:06:42;;;;;;;7.40;4.10;;;;;;;26.19;50.74;100637.91;2086818;28;20075;-72
2022/06/02 04:08:23;;;;;;;12.07;4.13;;;;;;;26.34;50.17;100636.28;2087327;28;20080;-72
2022/06/02 04:09:55;;;;;;;9.80;3.83;;;;;;;26.47;49.71;100637.41;2087007;28;20049;-72
2022/06/02 04:13:37;;;;;;;10.93;3.85;;;;;;;26.56;49.44;100643.22;2078456;28;20053;-72
2022/06/02 04:15:24;;;;;;;10.48;3.97;;;;;;;26.81;48.67;100640.09;2086703;28;20049;-72
2022/06/02 04:17:01;;;;;;;12.55;3.70;;;;;;;26.95;48.50;100639.38;2087079;28;20045;-72
2022/06/02 04:18:34;;;;;;;10.88;3.83;;;;;;;27.09;48.42;100652.19;2087860;28;20064;-72
2022/06/02 04:20:39;;;;;;;8.02;3.80;;;;;;;27.20;47.60;100641.63;2080824;28;20140;-72
2022/06/02 04:22:12;;;;;;;11.30;4.15;;;;;;;27.32;47.74;100643.63;2087815;28;20410;-72
2022/06/02 04:23:53;;;;;;;11.57;4.13;;;;;;;27.46;47.35;100637.44;2078507;28;20080;-72
2022/06/02 04:25:31;;;;;;;14.48;4.20;;;;;;;27.60;46.97;100634.88;2087669;28;20459;-72
2022/06/02 04:27:03;;;;;;;10.57;3.72;;;;;;;27.75;46.68;100643.03;2071665;28;20074;-71
2022/06/02 04:28:39;;;;;;;9.30;3.97;;;;;;;27.88;46.51;100642.31;2070713;28;20106;-72
2022/06/02 04:30:10;;;;;;;11.55;4.38;;;;;;;28.01;46.18;100630.66;2087052;28;20143;-72
2022/06/02 04:31:49;;;;;;;10.07;4.32;;;;;;;28.14;45.74;100636.25;2086829;28;20053;-72
2022/06/02 04:33:19;;;;;;;12.38;4.05;;;;;;;28.28;45.61;100649.91;2086453;28;20099;-72
2022/06/02 04:34:50;;;;;;;12.85;4.20;;;;;;;28.46;45.23;100650.63;2085134;28;20049;-72
2022/06/02 04:36:21;;;;;;;8.80;3.78;;;;;;;28.63;44.85;100650.47;2086371;28;20088;-71
2022/06/02 04:37:53;;;;;;;12.35;3.72;;;;;;;28.85;44.51;100641.91;2078202;28;20148;-71
2022/06/02 04:39:27;;;;;;;8.30;3.92;;;;;;;29.04;44.04;100639.78;2084203;28;20053;-72
2022/06/02 04:41:02;;;;;;;9.45;4.30;;;;;;;29.15;43.73;100645.41;2078599;28;20065;-72
2022/06/02 04:42:29;;;;;;;16.73;4.22;;;;;;;29.29;43.56;100650.84;2085456;28;20048;-72
2022/06/02 04:44:03;;;;;;;8.20;3.25;;;;;;;29.49;43.12;100644.16;2079948;28;20053;-72
2022/06/02 04:45:35;;;;;;;10.65;3.60;;;;;;;29.64;42.64;100645.03;2085278;28;20641;-72
2022/06/02 04:47:07;;;;;;;12.10;3.47;;;;;;;29.77;42.17;100639.63;2087989;28;20058;-72
2022/06/02 04:48:41;;;;;;;7.18;3.00;;;;;;;29.86;41.87;100637.19;2081155;28;20140;-72
2022/06/02 04:50:11;;;;;;;9.77;4.18;;;;;;;29.95;41.68;100638.44;2087320;28;20086;-72
2022/06/02 04:51:47;;;;;;;11.13;4.40;;;;;;;30.02;41.21;100637.94;2080760;28;20140;-72
2022/06/02 04:53:22;;;;;;;8.40;3.22;;;;;;;30.13;41.00;100636.34;2080584;28;20045;-73
2022/06/02 04:54:55;;;;;;;12.10;3.95;;;;;;;30.26;40.68;100646.28;2077155;28;20465;-73
2022/06/02 04:56:25;;;;;;;10.75;4.00;;;;;;;30.36;40.75;100647.44;2081029;28;20033;-72
2022/06/02 04:57:56;;;;;;;8.65;3.60;;;;;;;30.50;40.41;100643.78;2071536;28;20061;-72
2022/06/02 04:59:23;;;;;;;6.82;3.47;;;;;;;30.59;40.16;100648.56;2073880;28;20053;-72
2022/06/02 05:00:53;;;;;;;13.35;4.38;;;;;;;30.65;40.24;100648.19;2085682;28;20045;-72
2022/06/02 05:02:25;;;;;;;9.20;4.00;;;;;;;30.74;39.76;100641.19;2077577;28;20056;-71
2022/06/02 05:03:55;;;;;;;11.55;3.70;;;;;;;30.79;39.80;100647.19;2084734;28;20046;-72
2022/06/02 05:05:25;;;;;;;13.25;3.60;;;;;;;31.03;39.52;100647.31;2071243;28;20050;-72
2022/06/02 05:06:54;;;;;;;10.85;3.83;;;;;;;31.25;39.22;100650.28;2061613;28;20087;-71
2022/06/02 05:08:41;;;;;;;7.63;3.53;;;;;;;31.42;38.40;100655.41;2077023;28;20053;-72
2022/06/02 05:10:16;;;;;;;9.23;3.60;;;;;;;31.51;38.63;100657.44;2080846;28;20049;-72
2022/06/02 05:11:49;;;;;;;10.40;4.38;;;;;;;31.58;38.47;100661.47;2088522;28;20045;-72
2022/06/02 05:13:21;;;;;;;10.95;3.08;;;;;;;31.71;38.16;100655.13;2088305;28;20052;-71
2022/06/02 05:14:50;;;;;;;12.90;3.78;;;;;;;31.88;37.97;100654.75;2078520;28;20037;-72
2022/06/02 05:16:26;;;;;;;11.30;3.65;;;;;;;31.99;37.56;100657.56;2079291;28;20042;-72
2022/06/02 05:18:12;;;;;;;9.65;3.58;;;;;;;32.11;37.36;100656.63;2072276;28;20046;-72
2022/06/02 05:20:09;;;;;;;11.75;3.85;;;;;;;32.27;37.45;100654.50;2089009;28;20543;-71
2022/06/02 05:21:58;;;;;;;13.23;4.22;;;;;;;32.51;37.16;100656.34;2062403;28;20131;-72
2022/06/02 05:23:55;;;;;;;9.68;3.83;;;;;;;32.68;36.93;100666.88;2087433;28;20134;-72
2022/06/02 05:25:41;;;;;;;9.95;3.65;;;;;;;32.89;36.56;100648.75;2087253;28;20045;-72
2022/06/02 05:27:32;;;;;;;10.73;3.60;;;;;;;32.98;36.17;100650.78;2072559;28;20057;-72
2022/06/02 05:29:17;;;;;;;9.15;3.20;;;;;;;33.01;35.99;100658.75;2079647;28;20072;-72
2022/06/02 05:30:59;;;;;;;7.88;3.50;;;;;;;33.11;35.89;100657.00;2091197;28;20122;-72
2022/06/02 05:33:00;;;;;;;12.50;3.92;;;;;;;33.13;36.08;100649.56;2079920;28;20041;-72
2022/06/02 05:34:52;;;;;;;13.30;3.65;;;;;;;33.18;36.14;100657.38;2061898;28;20387;-72
2022/06/02 05:36:46;;;;;;;13.55;3.20;;;;;;;33.21;35.54;100646.25;2080881;28;20041;-72
2022/06/02 05:38:36;;;;;;;11.23;3.35;;;;;;;33.13;35.93;100649.56;2086964;28;20102;-72
2022/06/02 05:40:13;;;;;;;14.38;3.78;;;;;;;33.31;35.96;100652.69;2079184;28;20053;-72
2022/06/02 05:42:04;;;;;;;10.07;3.30;;;;;;;33.33;35.71;100638.91;2077415;28;20052;-71
2022/06/02 05:43:36;;;;;;;9.15;3.60;;;;;;;33.37;35.66;100649.47;2086315;28;20090;-71
2022/06/02 05:45:18;;;;;;;7.57;3.22;;;;;;;33.44;35.53;100649.84;2083348;28;20049;-72
2022/06/02 05:47:01;;;;;;;7.30;3.30;;;;;;;33.57;35.14;100643.22;2079136;28;20033;-72
2022/06/02 05:48:38;;;;;;;9.80;3.45;;;;;;;33.51;35.28;100645.59;2074884;28;20069;-72
2022/06/02 05:50:12;;;;;;;9.32;3.53;;;;;;;33.46;35.28;100653.31;2087722;28;20045;-72
2022/06/02 05:51:40;;;;;;;7.03;3.40;;;;;;;33.55;35.12;100641.59;2087921;28;20569;-73
2022/06/02 05:53:11;;;;;;;12.43;4.18;;;;;;;33.55;35.21;100647.06;2084767;28;20052;-72
2022/06/02 05:54:47;;;;;;;14.63;3.40;;;;;;;33.59;34.93;100648.59;2086506;28;20076;-72
2022/06/02 05:56:23;;;;;;;9.90;3.40;;;;;;;33.65;34.83;100655.41;2088114;28;20048;-72
2022/06/02 05:57:53;;;;;;;11.55;3.22;;;;;;;33.74;34.86;100650.06;2079877;28;20038;-72
2022/06/02 05:59:47;;;;;;;15.98;3.67;;;;;;;33.87;34.63;100645.31;2086456;28;20079;-72
2022/06/02 06:01:19;;;;;;;12.38;2.90;;;;;;;33.87;34.45;100655.44;2079689;28;20046;-72
2022/06/02 06:03:04;;;;;;;8.10;2.78;;;;;;;33.82;34.63;100650.31;2089976;28;20037;-71
2022/06/02 06:04:45;;;;;;;10.93;3.45;;;;;;;33.87;34.50;100653.53;2094544;28;20574;-72
2022/06/02 06:06:24;;;;;;;8.48;3.13;;;;;;;33.93;34.38;100655.78;2079383;28;20041;-72
2022/06/02 06:08:18;;;;;;;12.07;3.60;;;;;;;33.81;34.58;100647.69;2078598;28;20563;-71
2022/06/02 06:09:51;;;;;;;12.18;4.15;;;;;;;33.69;34.90;100663.25;2080563;28;20045;-71
2022/06/02 06:11:27;;;;;;;12.85;3.25;;;;;;;33.74;34.77;100649.22;2075797;28;20485;-71
2022/06/02 06:13:12;;;;;;;15.73;3.55;;;;;;;33.78;34.60;100658.91;2087979;28;20447;-71
2022/06/02 06:14:41;;;;;;;8.60;3.30;;;;;;;33.86;34.86;100654.56;2079434;28;20053;-73
2022/06/02 06:16:12;;;;;;;8.43;3.17;;;;;;;33.96;34.70;100661.00;2085067;28;20139;-72
2022/06/02 06:17:49;;;;;;;8.27;3.08;;;;;;;34.09;34.32;100665.44;2075263;28;20417;-72
2022/06/02 06:19:24;;;;;;;14.30;3.13;;;;;;;34.24;34.28;100662.31;2087309;28;20037;-72
2022/06/02 06:21:10;;;;;;;13.88;3.22;;;;;;;34.40;34.11;100657.25;2087721;28;20053;-72
2022/06/02 06:22:58;;;;;;;15.70;3.67;;;;;;;34.46;33.89;100653.13;2072148;28;20464;-73
2022/06/02 06:24:56;;;;;;;9.18;3.40;;;;;;;34.34;33.58;100663.25;2080335;28;20038;-72
2022/06/02 06:26:35;;;;;;;11.40;3.33;;;;;;;33.83;34.69;100656.66;2078140;28;20103;-72
2022/06/02 06:28:18;;;;;;;8.55;2.92;;;;;;;33.84;34.88;100658.41;2083119;28;20041;-71
2022/06/02 06:30:03;;;;;;;13.63;3.45;;;;;;;34.05;34.64;100663.97;2087455;28;20280;-71
2022/06/02 06:31:37;;;;;;;12.20;3.55;;;;;;;33.93;34.38;100655.78;2087916;28;20056;-71
2022/06/02 06:33:13;;;;;;;14.18;3.03;;;;;;;33.98;34.42;100660.88;2086547;28;20056;-71
2022/06/02 06:34:51;;;;;;;11.52;3.67;;;;;;;33.89;34.50;100659.75;2072023;28;20045;-72
2022/06/02 06:36:30;;;;;;;11.20;3.45;;;;;;;33.85;34.50;100658.28;2071258;28;20046;-72
2022/06/02 06:38:09;;;;;;;10.15;3.35;;;;;;;33.76;34.54;100648.09;2081379;28;20111;-72
2022/06/02 06:39:42;;;;;;;11.98;3.58;;;;;;;33.83;34.44;100653.91;2080077;28;20460;-71
2022/06/02 06:41:33;;;;;;;9.07;3.20;;;;;;;33.82;34.51;100655.78;2076333;28;20148;-72
2022/06/02 06:43:08;;;;;;;11.18;3.20;;;;;;;33.85;34.56;100654.69;2080746;28;20057;-71
2022/06/02 06:44:40;;;;;;;10.05;3.10;;;;;;;33.86;34.70;100660.03;2079343;28;20406;-71
2022/06/02 06:46:14;;;;;;;11.45;3.70;;;;;;;33.88;34.59;100651.66;2075150;28;20107;-72
2022/06/02 06:47:42;;;;;;;8.30;3.00;;;;;;;33.93;34.44;100661.25;2075751;28;20136;-72
2022/06/02 06:49:17;;;;;;;7.32;3.03;;;;;;;33.94;34.64;100664.84;2083807;28;20049;-72
2022/06/02 06:50:49;;;;;;;10.35;3.20;;;;;;;34.13;34.60;100659.59;2085996;28;20116;-72
2022/06/02 06:52:35;;;;;;;10.70;3.35;;;;;;;34.35;34.25;100659.53;2078103;28;20050;-72
2022/06/02 06:54:04;;;;;;;9.52;3.30;;;;;;;34.43;34.16;100661.63;2079008;28;20042;-72
2022/06/02 06:55:40;;;;;;;11.40;2.85;;;;;;;34.39;34.05;100654.66;2079445;28;20554;-72
2022/06/02 06:57:07;;;;;;;7.03;2.50;;;;;;;34.38;33.98;100663.88;2087528;28;20056;-72
2022/06/02 06:58:46;;;;;;;12.70;3.50;;;;;;;34.29;34.01;100660.06;2088343;28;20091;-72
2022/06/02 07:00:19;;;;;;;14.07;4.07;;;;;;;34.17;33.93;100658.31;2075163;28;20510;-72
2022/06/02 07:01:50;;;;;;;13.98;3.50;;;;;;;34.15;33.76;100667.66;2075350;28;20075;-73
2022/06/02 07:03:21;;;;;;;11.77;3.60;;;;;;;34.10;33.84;100672.66;2070642;28;20045;-72
2022/06/02 07:04:52;;;;;;;12.98;3.78;;;;;;;34.10;33.68;100665.31;2073440;28;20106;-72
2022/06/02 07:06:23;;;;;;;12.45;4.00;;;;;;;34.08;33.60;100670.03;2084523;28;20052;-72
2022/06/02 07:07:57;;;;;;;14.43;3.47;;;;;;;34.03;33.48;100668.69;2080117;28;20144;-73
2022/06/02 07:09:29;;;;;;;10.52;3.53;;;;;;;33.98;33.71;100669.97;2075281;28;20144;-73
2022/06/02 07:10:59;;;;;;;11.43;3.38;;;;;;;34.03;33.78;100671.44;2075368;28;20502;-71
2022/06/02 07:14:14;;;;;;;6.25;3.30;;;;;;;34.26;33.49;100684.13;2069652;28;20141;-72
2022/06/02 07:15:57;;;;;;;6.47;2.85;;;;;;;34.17;33.37;100671.16;2061941;28;20057;-72
2022/06/02 07:17:29;;;;;;;11.15;3.10;;;;;;;34.12;33.44;100670.69;2061501;28;20560;-72
2022/06/02 07:19:00;;;;;;;13.90;3.78;;;;;;;33.99;33.35;100668.97;2068832;28;20078;-72
2022/06/02 07:20:30;;;;;;;13.77;3.22;;;;;;;33.87;33.74;100672.72;2067338;28;20081;-72
2022/06/02 07:21:57;;;;;;;8.13;2.63;;;;;;;33.86;33.63;100675.59;2070497;28;20053;-72
2022/06/02 07:23:33;;;;;;;12.68;3.72;;;;;;;33.73;33.79;100674.88;2075442;28;20647;-72
2022/06/02 07:25:04;;;;;;;11.82;2.97;;;;;;;33.72;33.96;100674.00;2070909;28;20042;-72
2022/06/02 07:26:41;;;;;;;9.93;3.50;;;;;;;33.76;33.92;100680.97;2069756;28;20058;-72
2022/06/02 07:28:09;;;;;;;11.07;3.30;;;;;;;33.62;34.15;100676.56;2078339;28;20209;-72
2022/06/02 07:29:46;;;;;;;8.02;2.70;;;;;;;33.54;34.44;100676.31;2078039;28;20041;-72
2022/06/02 07:31:25;;;;;;;10.00;3.20;;;;;;;33.42;34.47;100674.59;2078454;28;20106;-72